Time;durP1;ratioP1;P1;durP2;ratioP2;P2;SDS_P1;SDS_P2;PMS_P1;PMS_P2;Temp;Humidity;BMP_temperature;BMP_pressure;BME280_temperature;BME280_humidity;BME280_pressure;Samples;Min_cycle;Max_cycle;Signal;HPM_P1;HPM_P2
2022/07/16 00:01:23;;;;;;;6.30;2.65;;;;;;;;;;4877693;29;20039;-62
2022/07/16 00:03:57;;;;;;;10.30;2.38;;;;;;;;;;4874011;29;20060;-62
2022/07/16 00:06:24;;;;;;;4.82;2.70;;;;;;;;;;4875359;29;20037;-61
2022/07/16 00:08:50;;;;;;;5.93;2.83;;;;;;;;;;4878201;29;20124;-61
2022/07/16 00:11:16;;;;;;;7.65;2.88;;;;;;;;;;4877410;29;20041;-61
2022/07/16 00:13:42;;;;;;;6.38;2.70;;;;;;;;;;4878038;29;20037;-61
2022/07/16 00:16:08;;;;;;;6.13;3.40;;;;;;;;;;4877244;29;20037;-61
2022/07/16 00:21:20;;;;;;;4.93;3.10;;;;;;;;;;4877256;29;20088;-61
2022/07/16 00:23:45;;;;;;;6.07;3.40;;;;;;;;;;4878025;29;20073;-60
2022/07/16 00:26:11;;;;;;;6.40;3.15;;;;;;;;;;4877258;29;20436;-62
2022/07/16 00:28:36;;;;;;;6.38;3.42;;;;;;;;;;4878086;29;20044;-61
2022/07/16 00:31:02;;;;;;;5.38;3.20;;;;;;;;;;4870661;29;20041;-67
2022/07/16 00:33:28;;;;;;;7.18;3.30;;;;;;;;;;4882417;29;20051;-66
2022/07/16 00:35:53;;;;;;;8.60;3.17;;;;;;;;;;4887872;29;20045;-67
2022/07/16 00:38:18;;;;;;;6.35;3.03;;;;;;;;;;4869044;29;20045;-67
2022/07/16 00:40:44;;;;;;;5.53;2.92;;;;;;;;;;4893374;29;20405;-67
2022/07/16 00:43:14;;;;;;;6.90;3.08;;;;;;;;;;4882455;29;20069;-66
2022/07/16 00:45:40;;;;;;;4.00;2.90;;;;;;;;;;4877823;29;20089;-67
2022/07/16 00:48:06;;;;;;;6.22;2.90;;;;;;;;;;4889047;29;20129;-67
2022/07/16 00:50:32;;;;;;;5.20;3.05;;;;;;;;;;4889390;29;20029;-67
2022/07/16 00:52:59;;;;;;;6.40;3.30;;;;;;;;;;4884511;29;20069;-67
2022/07/16 00:55:25;;;;;;;9.95;3.38;;;;;;;;;;4885387;29;20272;-66
2022/07/16 00:57:50;;;;;;;4.53;3.00;;;;;;;;;;4886225;29;20081;-67
2022/07/16 01:00:16;;;;;;;8.20;3.50;;;;;;;;;;4895780;29;20522;-67
2022/07/16 01:02:41;;;;;;;9.75;3.10;;;;;;;;;;4890075;29;20132;-67
2022/07/16 01:05:07;;;;;;;7.30;3.50;;;;;;;;;;4879371;29;20044;-67
2022/07/16 01:07:33;;;;;;;7.32;3.30;;;;;;;;;;4878189;29;20032;-66
2022/07/16 01:10:02;;;;;;;5.85;3.30;;;;;;;;;;4883016;29;20054;-67
2022/07/16 01:12:27;;;;;;;4.93;3.15;;;;;;;;;;4880526;29;20108;-68
2022/07/16 01:14:53;;;;;;;8.32;3.60;;;;;;;;;;4885095;29;20108;-67
2022/07/16 01:17:19;;;;;;;7.28;3.38;;;;;;;;;;4883489;29;20064;-67
2022/07/16 01:19:44;;;;;;;8.07;3.40;;;;;;;;;;4861532;29;20033;-67
2022/07/16 01:22:17;;;;;;;7.88;3.50;;;;;;;;;;4879545;29;20032;-67
2022/07/16 01:24:43;;;;;;;8.88;3.78;;;;;;;;;;4879986;29;20048;-67
2022/07/16 01:27:08;;;;;;;12.85;3.63;;;;;;;;;;4881334;29;20037;-67
2022/07/16 01:29:34;;;;;;;6.05;3.47;;;;;;;;;;4899226;29;20462;-67
2022/07/16 01:31:59;;;;;;;8.50;3.58;;;;;;;;;;4896942;29;20136;-67
2022/07/16 01:34:25;;;;;;;7.97;3.42;;;;;;;;;;4889832;29;20551;-67
2022/07/16 01:36:59;;;;;;;5.93;3.40;;;;;;;;;;4879851;29;20037;-67
2022/07/16 01:39:26;;;;;;;5.28;3.70;;;;;;;;;;4898365;29;20040;-67
2022/07/16 01:41:54;;;;;;;6.70;3.65;;;;;;;;;;4878143;29;20506;-67
2022/07/16 01:44:20;;;;;;;7.18;3.80;;;;;;;;;;4878698;29;20132;-66
2022/07/16 01:46:45;;;;;;;6.07;3.28;;;;;;;;;;4876076;29;20033;-67
2022/07/16 01:49:11;;;;;;;6.28;3.58;;;;;;;;;;4876692;29;20375;-67
2022/07/16 01:51:36;;;;;;;5.18;3.40;;;;;;;;;;4881342;29;20120;-66
2022/07/16 01:54:01;;;;;;;5.93;3.40;;;;;;;;;;4878999;29;20053;-67
2022/07/16 01:56:27;;;;;;;5.80;3.30;;;;;;;;;;4884528;29;20037;-67
2022/07/16 01:58:52;;;;;;;5.72;3.30;;;;;;;;;;4879301;29;20033;-66
2022/07/16 02:01:18;;;;;;;7.03;3.33;;;;;;;;;;4862520;29;20074;-69
2022/07/16 02:03:43;;;;;;;9.88;3.53;;;;;;;;;;4882329;29;20477;-66
2022/07/16 02:06:08;;;;;;;6.90;3.38;;;;;;;;;;4886494;29;20036;-68
2022/07/16 02:08:34;;;;;;;5.93;3.25;;;;;;;;;;4876112;29;20045;-68
2022/07/16 02:10:59;;;;;;;5.72;3.05;;;;;;;;;;4878914;29;20041;-67
2022/07/16 02:13:25;;;;;;;4.93;2.97;;;;;;;;;;4878982;29;20124;-68
2022/07/16 02:15:50;;;;;;;6.07;3.25;;;;;;;;;;4880667;29;20032;-68
2022/07/16 02:18:16;;;;;;;7.40;3.38;;;;;;;;;;4875681;29;20037;-67
2022/07/16 02:20:41;;;;;;;5.63;3.03;;;;;;;;;;4864323;29;20043;-66
2022/07/16 02:23:06;;;;;;;8.48;3.40;;;;;;;;;;4888281;29;20484;-68
2022/07/16 02:25:32;;;;;;;6.30;3.05;;;;;;;;;;4897934;29;20627;-67
2022/07/16 02:28:06;;;;;;;7.22;3.20;;;;;;;;;;4883774;29;20474;-67
2022/07/16 02:30:40;;;;;;;8.80;3.17;;;;;;;;;;4866063;29;20161;-67
2022/07/16 02:33:06;;;;;;;7.72;3.10;;;;;;;;;;4878022;29;20041;-67
2022/07/16 02:35:32;;;;;;;5.70;3.00;;;;;;;;;;4877181;29;20036;-67
2022/07/16 02:37:59;;;;;;;8.40;3.38;;;;;;;;;;4874377;29;20124;-67
2022/07/16 02:40:25;;;;;;;6.25;3.20;;;;;;;;;;4882090;29;20480;-67
2022/07/16 02:42:51;;;;;;;10.43;3.33;;;;;;;;;;4877250;29;20059;-67
2022/07/16 02:45:16;;;;;;;7.78;2.92;;;;;;;;;;4879448;29;20041;-67
2022/07/16 02:47:42;;;;;;;5.90;3.05;;;;;;;;;;4884071;29;20052;-67
2022/07/16 02:50:08;;;;;;;7.00;2.90;;;;;;;;;;4874401;29;20032;-67
2022/07/16 02:52:34;;;;;;;7.63;3.10;;;;;;;;;;4876949;29;20128;-67
2022/07/16 02:54:59;;;;;;;5.03;3.00;;;;;;;;;;4878526;29;20068;-67
2022/07/16 02:57:25;;;;;;;8.35;3.13;;;;;;;;;;4877284;29;20105;-67
2022/07/16 02:59:50;;;;;;;10.45;3.13;;;;;;;;;;4893015;29;20162;-67
2022/07/16 03:02:16;;;;;;;9.02;2.90;;;;;;;;;;4889921;29;20371;-68
2022/07/16 03:04:41;;;;;;;7.15;3.20;;;;;;;;;;4860731;29;20117;-67
2022/07/16 03:07:06;;;;;;;8.15;3.20;;;;;;;;;;4893108;29;20493;-67
2022/07/16 03:09:32;;;;;;;5.65;3.05;;;;;;;;;;4881584;29;20093;-67
2022/07/16 03:11:57;;;;;;;8.55;3.28;;;;;;;;;;4892291;29;20461;-67
2022/07/16 03:14:22;;;;;;;7.15;2.90;;;;;;;;;;4881389;29;20033;-67
2022/07/16 03:16:48;;;;;;;4.97;3.05;;;;;;;;;;4889081;29;20093;-67
2022/07/16 03:19:14;;;;;;;6.95;2.90;;;;;;;;;;4892018;29;20041;-67
2022/07/16 03:21:39;;;;;;;5.15;2.78;;;;;;;;;;4882492;29;20105;-67
2022/07/16 03:24:05;;;;;;;6.50;2.60;;;;;;;;;;4876261;29;20060;-67
2022/07/16 03:26:30;;;;;;;6.50;3.53;;;;;;;;;;4877912;29;20037;-67
2022/07/16 03:28:56;;;;;;;8.13;2.70;;;;;;;;;;4884146;29;20036;-67
2022/07/16 03:31:21;;;;;;;9.48;2.72;;;;;;;;;;4878288;29;20075;-67
2022/07/16 03:33:46;;;;;;;5.50;2.70;;;;;;;;;;4879338;29;20053;-67
2022/07/16 03:36:12;;;;;;;5.88;2.97;;;;;;;;;;4877588;29;20105;-67
2022/07/16 03:41:21;;;;;;;6.32;2.63;;;;;;;;;;4873645;29;20047;-67
2022/07/16 03:43:47;;;;;;;4.85;2.70;;;;;;;;;;4884273;29;20103;-67
2022/07/16 03:46:13;;;;;;;4.60;2.50;;;;;;;;;;4889992;29;20116;-68
2022/07/16 03:48:39;;;;;;;6.22;2.90;;;;;;;;;;4879064;29;20037;-67
2022/07/16 03:51:06;;;;;;;5.63;2.38;;;;;;;;;;4878671;29;20462;-67
2022/07/16 03:53:34;;;;;;;4.95;2.53;;;;;;;;;;4880412;29;20051;-68
2022/07/16 03:56:00;;;;;;;5.63;2.50;;;;;;;;;;4874324;29;20046;-68
2022/07/16 03:58:26;;;;;;;7.13;2.50;;;;;;;;;;4888081;29;20415;-68
2022/07/16 04:00:52;;;;;;;5.50;2.33;;;;;;;;;;4878382;29;20032;-66
2022/07/16 04:03:17;;;;;;;5.65;2.28;;;;;;;;;;4877215;29;20036;-68
2022/07/16 04:05:43;;;;;;;4.30;2.25;;;;;;;;;;4896831;29;20119;-68
2022/07/16 04:08:08;;;;;;;4.07;2.38;;;;;;;;;;4894704;29;20485;-67
2022/07/16 04:10:34;;;;;;;5.57;2.50;;;;;;;;;;4875653;29;20571;-67
2022/07/16 04:12:59;;;;;;;3.63;2.25;;;;;;;;;;4878400;29;20033;-67
2022/07/16 04:15:25;;;;;;;3.33;2.28;;;;;;;;;;4876263;29;20033;-67
2022/07/16 04:17:50;;;;;;;3.65;2.20;;;;;;;;;;4878000;29;20043;-69
2022/07/16 04:20:16;;;;;;;4.43;2.50;;;;;;;;;;4884058;29;20033;-67
2022/07/16 04:22:41;;;;;;;7.45;2.30;;;;;;;;;;4876648;29;20107;-68
2022/07/16 04:25:07;;;;;;;5.10;2.30;;;;;;;;;;4882663;29;20135;-67
2022/07/16 04:27:32;;;;;;;5.10;2.75;;;;;;;;;;4875471;29;20049;-68
2022/07/16 04:29:58;;;;;;;5.93;2.40;;;;;;;;;;4876332;29;20037;-67
2022/07/16 04:32:23;;;;;;;7.90;2.60;;;;;;;;;;4875510;29;20032;-67
2022/07/16 04:34:49;;;;;;;5.78;2.50;;;;;;;;;;4875383;29;20044;-67
2022/07/16 04:37:14;;;;;;;7.15;2.40;;;;;;;;;;4877067;29;20043;-67
2022/07/16 04:39:40;;;;;;;5.18;2.50;;;;;;;;;;4876529;29;20110;-67
2022/07/16 04:42:05;;;;;;;5.30;2.65;;;;;;;;;;4878702;29;20120;-67
2022/07/16 04:44:30;;;;;;;6.03;3.00;;;;;;;;;;4877919;29;20029;-68
2022/07/16 04:46:56;;;;;;;3.97;2.70;;;;;;;;;;4879403;29;20040;-67
2022/07/16 04:49:21;;;;;;;6.35;3.00;;;;;;;;;;4887805;29;20064;-67
2022/07/16 04:51:46;;;;;;;5.70;3.15;;;;;;;;;;4900195;29;20386;-67
2022/07/16 04:54:12;;;;;;;5.07;3.25;;;;;;;;;;4882870;29;20132;-67
2022/07/16 04:56:37;;;;;;;5.32;3.08;;;;;;;;;;4878496;29;20048;-67
2022/07/16 04:59:03;;;;;;;5.20;3.22;;;;;;;;;;4878431;29;20463;-67
2022/07/16 05:01:28;;;;;;;6.22;3.38;;;;;;;;;;4887318;29;20047;-67
2022/07/16 05:03:54;;;;;;;6.97;3.30;;;;;;;;;;4900257;29;20115;-66
2022/07/16 05:06:19;;;;;;;6.68;3.30;;;;;;;;;;4894126;29;20434;-67
2022/07/16 05:08:45;;;;;;;6.05;3.70;;;;;;;;;;4868776;29;20060;-67
2022/07/16 05:11:10;;;;;;;6.28;3.53;;;;;;;;;;4884361;29;20111;-67
2022/07/16 05:13:36;;;;;;;7.10;3.63;;;;;;;;;;4880582;29;20041;-67
2022/07/16 05:16:02;;;;;;;8.98;3.97;;;;;;;;;;4879676;29;20036;-67
2022/07/16 05:18:28;;;;;;;6.85;3.90;;;;;;;;;;4899001;29;20064;-67
2022/07/16 05:20:53;;;;;;;8.50;4.07;;;;;;;;;;4886666;29;20509;-67
2022/07/16 05:23:19;;;;;;;8.32;3.90;;;;;;;;;;4879911;29;20068;-67
2022/07/16 05:25:44;;;;;;;6.68;3.95;;;;;;;;;;4876979;29;20581;-67
2022/07/16 05:28:10;;;;;;;6.07;3.88;;;;;;;;;;4880731;29;20053;-67
2022/07/16 05:30:35;;;;;;;6.70;3.90;;;;;;;;;;4876718;29;20112;-67
2022/07/16 05:33:01;;;;;;;7.43;3.97;;;;;;;;;;4878758;29;20331;-68
2022/07/16 05:35:26;;;;;;;11.13;4.40;;;;;;;;;;4880127;29;20029;-67
2022/07/16 05:37:51;;;;;;;7.03;4.38;;;;;;;;;;4879761;29;20045;-67
2022/07/16 05:40:17;;;;;;;8.68;4.28;;;;;;;;;;4879541;29;20044;-67
2022/07/16 05:42:43;;;;;;;8.73;4.25;;;;;;;;;;4878356;29;20728;-68
2022/07/16 05:45:09;;;;;;;12.68;4.63;;;;;;;;;;4880700;29;20479;-67
2022/07/16 05:47:34;;;;;;;6.22;4.05;;;;;;;;;;4883019;29;20105;-69
2022/07/16 05:50:01;;;;;;;9.13;4.20;;;;;;;;;;4890696;29;20406;-68
2022/07/16 05:52:26;;;;;;;11.98;4.38;;;;;;;;;;4878094;29;20085;-68
2022/07/16 05:54:52;;;;;;;8.35;4.15;;;;;;;;;;4879790;29;20205;-68
2022/07/16 05:57:17;;;;;;;6.75;4.20;;;;;;;;;;4879635;29;20085;-67
2022/07/16 05:59:43;;;;;;;6.97;4.10;;;;;;;;;;4878547;29;20117;-68
2022/07/16 06:02:09;;;;;;;8.23;4.30;;;;;;;;;;4885602;29;20043;-67
2022/07/16 06:04:34;;;;;;;6.28;3.63;;;;;;;;;;4878094;29;20047;-68
2022/07/16 06:06:59;;;;;;;7.85;3.53;;;;;;;;;;4880412;29;20037;-67
2022/07/16 06:09:25;;;;;;;8.07;3.63;;;;;;;;;;4890496;29;20041;-67
2022/07/16 06:11:50;;;;;;;6.32;3.70;;;;;;;;;;4894916;29;20412;-67
2022/07/16 06:14:16;;;;;;;6.60;3.30;;;;;;;;;;4886474;29;20094;-68
2022/07/16 06:16:41;;;;;;;4.75;3.40;;;;;;;;;;4895057;29;20452;-66
2022/07/16 06:19:07;;;;;;;9.88;3.20;;;;;;;;;;4892344;29;20037;-68
2022/07/16 06:21:33;;;;;;;6.18;3.28;;;;;;;;;;4878343;29;20037;-68
2022/07/16 06:23:58;;;;;;;6.60;3.25;;;;;;;;;;4883440;29;20446;-68
2022/07/16 06:26:24;;;;;;;5.57;2.85;;;;;;;;;;4898711;29;20079;-68
2022/07/16 06:28:49;;;;;;;6.60;3.17;;;;;;;;;;4881082;29;20036;-67
2022/07/16 06:31:14;;;;;;;4.63;2.53;;;;;;;;;;4878425;29;20371;-68
2022/07/16 06:33:40;;;;;;;6.05;2.50;;;;;;;;;;4876798;29;20430;-69
2022/07/16 06:36:05;;;;;;;2.13;1.90;;;;;;;;;;4880050;29;20478;-68
2022/07/16 06:38:32;;;;;;;5.07;2.22;;;;;;;;;;4876595;29;20033;-67
2022/07/16 06:40:57;;;;;;;3.03;1.90;;;;;;;;;;4879020;29;20040;-67
2022/07/16 06:43:23;;;;;;;2.25;1.70;;;;;;;;;;4898358;29;20028;-67
2022/07/16 06:45:48;;;;;;;2.20;1.73;;;;;;;;;;4895657;29;20056;-68
2022/07/16 06:48:13;;;;;;;2.85;1.48;;;;;;;;;;4898609;29;20100;-68
2022/07/16 06:50:39;;;;;;;2.55;1.48;;;;;;;;;;4896737;29;20043;-69
2022/07/16 06:53:04;;;;;;;1.67;1.10;;;;;;;;;;4881741;29;20506;-67
2022/07/16 06:55:30;;;;;;;2.53;1.50;;;;;;;;;;4877431;29;20033;-67
2022/07/16 06:57:55;;;;;;;3.42;1.27;;;;;;;;;;4880492;29;20548;-67
2022/07/16 07:00:21;;;;;;;3.40;1.52;;;;;;;;;;4872643;29;20031;-67
2022/07/16 07:02:46;;;;;;;3.45;1.40;;;;;;;;;;4891051;29;20130;-66
2022/07/16 07:05:12;;;;;;;2.25;1.40;;;;;;;;;;4879335;29;20111;-66
2022/07/16 07:07:37;;;;;;;4.32;1.35;;;;;;;;;;4875919;29;20470;-68
2022/07/16 07:10:03;;;;;;;1.83;1.27;;;;;;;;;;4878252;29;20037;-68
2022/07/16 07:12:29;;;;;;;3.65;1.50;;;;;;;;;;4878611;29;20356;-68
2022/07/16 07:14:54;;;;;;;3.25;1.30;;;;;;;;;;4896532;29;20492;-68
2022/07/16 07:17:20;;;;;;;1.85;1.27;;;;;;;;;;4892181;29;20048;-69
2022/07/16 07:19:46;;;;;;;3.40;1.42;;;;;;;;;;4879042;29;20120;-68
2022/07/16 07:22:11;;;;;;;3.75;1.50;;;;;;;;;;4896037;29;20044;-67
2022/07/16 07:24:36;;;;;;;3.95;1.42;;;;;;;;;;4876578;29;20067;-67
2022/07/16 07:27:02;;;;;;;4.10;1.40;;;;;;;;;;4885928;29;20040;-67
2022/07/16 07:29:27;;;;;;;2.33;1.30;;;;;;;;;;4877258;29;20043;-66
2022/07/16 07:31:52;;;;;;;2.88;1.20;;;;;;;;;;4879619;29;20051;-67
2022/07/16 07:34:18;;;;;;;2.13;1.40;;;;;;;;;;4878702;29;20036;-67
2022/07/16 07:36:43;;;;;;;2.92;1.40;;;;;;;;;;4880395;29;20032;-66
2022/07/16 07:39:09;;;;;;;5.32;1.50;;;;;;;;;;4889332;29;20029;-67
2022/07/16 07:41:35;;;;;;;2.92;1.50;;;;;;;;;;4895364;29;20037;-67
2022/07/16 07:44:00;;;;;;;2.45;1.40;;;;;;;;;;4883561;29;20082;-67
2022/07/16 07:46:25;;;;;;;4.60;1.60;;;;;;;;;;4887229;29;20390;-67
2022/07/16 07:48:51;;;;;;;2.88;1.90;;;;;;;;;;4894133;29;20047;-66
2022/07/16 07:51:16;;;;;;;2.70;1.50;;;;;;;;;;4867956;29;20040;-68
2022/07/16 07:53:42;;;;;;;2.55;1.50;;;;;;;;;;4883604;29;20040;-68
2022/07/16 07:56:10;;;;;;;3.72;1.50;;;;;;;;;;4897148;29;20502;-65
2022/07/16 07:58:36;;;;;;;2.90;1.40;;;;;;;;;;4891025;29;20467;-66
2022/07/16 08:01:02;;;;;;;3.30;1.40;;;;;;;;;;4863528;29;20467;-67
2022/07/16 08:03:27;;;;;;;2.28;1.40;;;;;;;;;;4871749;29;20045;-69
2022/07/16 08:05:53;;;;;;;3.53;1.38;;;;;;;;;;4895044;29;20029;-66
2022/07/16 08:08:18;;;;;;;2.45;1.40;;;;;;;;;;4877542;29;20036;-67
2022/07/16 08:10:43;;;;;;;4.45;1.50;;;;;;;;;;4876382;29;20442;-67
2022/07/16 08:13:09;;;;;;;3.85;1.30;;;;;;;;;;4882876;29;20067;-66
2022/07/16 08:15:35;;;;;;;3.10;1.50;;;;;;;;;;4876970;29;20064;-69
2022/07/16 08:18:00;;;;;;;2.72;1.50;;;;;;;;;;4876658;29;20075;-67
2022/07/16 08:20:26;;;;;;;2.10;1.40;;;;;;;;;;4878315;29;20112;-67
2022/07/16 08:22:51;;;;;;;3.20;1.45;;;;;;;;;;4892942;29;20040;-67
2022/07/16 08:28:00;;;;;;;5.53;1.70;;;;;;;;;;4892448;29;20052;-67
2022/07/16 08:30:26;;;;;;;2.90;1.40;;;;;;;;;;4887822;29;20041;-67
2022/07/16 08:32:52;;;;;;;2.30;1.38;;;;;;;;;;4878081;29;20711;-67
2022/07/16 08:35:18;;;;;;;3.05;1.40;;;;;;;;;;4878104;29;20037;-66
2022/07/16 08:37:46;;;;;;;4.35;1.58;;;;;;;;;;4878282;29;20037;-68
2022/07/16 08:40:14;;;;;;;5.82;1.30;;;;;;;;;;4855439;29;20068;-66
2022/07/16 08:42:40;;;;;;;1.73;1.20;;;;;;;;;;4884882;29;20029;-67
2022/07/16 08:45:07;;;;;;;3.53;1.55;;;;;;;;;;4876762;29;20039;-66
2022/07/16 08:47:34;;;;;;;2.78;1.30;;;;;;;;;;4880363;29;20037;-68
2022/07/16 08:50:04;;;;;;;3.63;1.40;;;;;;;;;;4889946;29;20060;-68
2022/07/16 08:52:30;;;;;;;2.78;1.45;;;;;;;;;;4880561;29;20052;-70
2022/07/16 08:54:57;;;;;;;3.78;1.40;;;;;;;;;;4870459;29;20075;-66
2022/07/16 08:57:24;;;;;;;2.90;1.50;;;;;;;;;;4880261;29;20512;-68
2022/07/16 08:59:50;;;;;;;2.28;1.35;;;;;;;;;;4876352;29;20033;-67
2022/07/16 09:02:16;;;;;;;5.30;1.42;;;;;;;;;;4865796;29;20036;-66
2022/07/16 09:04:42;;;;;;;3.22;1.40;;;;;;;;;;4887249;29;20033;-67
2022/07/16 09:07:14;;;;;;;5.18;1.45;;;;;;;;;;4893634;29;20065;-65
2022/07/16 09:09:40;;;;;;;3.17;1.30;;;;;;;;;;4888791;29;20040;-68
2022/07/16 09:12:06;;;;;;;3.95;1.40;;;;;;;;;;4894855;29;20043;-65
2022/07/16 09:14:31;;;;;;;4.30;1.40;;;;;;;;;;4884977;29;20029;-66
2022/07/16 09:16:56;;;;;;;2.13;1.30;;;;;;;;;;4876768;29;20060;-66
2022/07/16 09:19:25;;;;;;;4.07;1.40;;;;;;;;;;4893425;29;20489;-67
2022/07/16 09:22:07;;;;;;;2.13;1.23;;;;;;;;;;4888873;29;20044;-66
2022/07/16 09:24:35;;;;;;;3.10;1.35;;;;;;;;;;4886853;29;20036;-66
2022/07/16 09:27:06;;;;;;;3.20;1.27;;;;;;;;;;4876388;29;20033;-66
2022/07/16 09:29:36;;;;;;;3.05;1.40;;;;;;;;;;4877820;29;20547;-65
2022/07/16 09:32:02;;;;;;;;;;;;;;;;;;4880945;29;20060;-66
2022/07/16 09:34:29;;;;;;;4.10;1.67;;;;;;;;;;4882730;29;19915;-66
2022/07/16 09:36:59;;;;;;;3.75;1.33;;;;;;;;;;4880051;29;20033;-66
2022/07/16 09:39:24;;;;;;;1.95;1.40;;;;;;;;;;4882559;29;20051;-66
2022/07/16 09:41:50;;;;;;;3.53;1.20;;;;;;;;;;4863372;29;20132;-66
2022/07/16 09:44:21;;;;;;;5.15;1.30;;;;;;;;;;4890003;29;20037;-67
2022/07/16 09:47:09;;;;;;;2.80;1.23;;;;;;;;;;4886518;29;20029;-67
2022/07/16 09:49:37;;;;;;;3.65;1.20;;;;;;;;;;4883040;29;20037;-65
2022/07/16 09:52:32;;;;;;;3.38;1.20;;;;;;;;;;4879685;29;20045;-68
2022/07/16 09:54:58;;;;;;;2.42;1.30;;;;;;;;;;4892554;29;20092;-68
2022/07/16 09:57:27;;;;;;;2.88;1.20;;;;;;;;;;4883355;29;20051;-67
2022/07/16 09:59:54;;;;;;;2.67;1.13;;;;;;;;;;4878286;29;20041;-67
2022/07/16 10:02:19;;;;;;;3.35;1.50;;;;;;;;;;4888598;29;20037;-67
2022/07/16 10:04:45;;;;;;;2.38;1.30;;;;;;;;;;4878984;29;20493;-68
2022/07/16 10:07:11;;;;;;;5.03;1.35;;;;;;;;;;4889167;29;20032;-67
2022/07/16 10:09:36;;;;;;;2.60;1.30;;;;;;;;;;4888383;29;20052;-68
2022/07/16 10:12:13;;;;;;;2.00;1.30;;;;;;;;;;4884087;29;20489;-67
2022/07/16 10:14:45;;;;;;;2.90;1.30;;;;;;;;;;4897726;29;20041;-68
2022/07/16 10:17:17;;;;;;;5.18;1.30;;;;;;;;;;4882723;29;20051;-68
2022/07/16 10:19:44;;;;;;;5.18;1.20;;;;;;;;;;4891781;29;20105;-68
2022/07/16 10:22:22;;;;;;;6.57;1.52;;;;;;;;;;4877082;29;20037;-66
2022/07/16 10:24:53;;;;;;;5.20;1.50;;;;;;;;;;4893416;29;20041;-66
2022/07/16 10:27:34;;;;;;;3.20;1.40;;;;;;;;;;4895823;29;20032;-66
2022/07/16 10:30:14;;;;;;;5.47;1.40;;;;;;;;;;4893556;29;20043;-67
2022/07/16 10:32:59;;;;;;;2.83;1.40;;;;;;;;;;4877491;29;20397;-66
2022/07/16 10:35:31;;;;;;;3.95;1.30;;;;;;;;;;4880663;29;20029;-67
2022/07/16 10:38:15;;;;;;;6.03;1.50;;;;;;;;;;4882211;29;20040;-68
2022/07/16 10:40:43;;;;;;;2.80;1.30;;;;;;;;;;4883437;29;20065;-67
2022/07/16 10:43:13;;;;;;;5.72;1.52;;;;;;;;;;4877971;29;20040;-66
2022/07/16 10:45:54;;;;;;;3.57;1.30;;;;;;;;;;4877590;29;20044;-67
2022/07/16 10:48:21;;;;;;;3.72;1.67;;;;;;;;;;4878602;29;20108;-67
2022/07/16 10:51:21;;;;;;;4.32;1.30;;;;;;;;;;4887982;29;20472;-67
2022/07/16 10:53:58;;;;;;;4.35;1.27;;;;;;;;;;4869608;29;20060;-66
2022/07/16 10:56:47;;;;;;;5.70;1.40;;;;;;;;;;4875301;29;20047;-66
2022/07/16 10:59:16;;;;;;;3.08;1.33;;;;;;;;;;4880090;29;20037;-66
2022/07/16 11:01:44;;;;;;;2.70;1.20;;;;;;;;;;4885222;29;20037;-67
2022/07/16 11:04:10;;;;;;;3.33;1.20;;;;;;;;;;4879019;29;20040;-67
2022/07/16 11:06:37;;;;;;;4.68;1.52;;;;;;;;;;4892117;29;20368;-66
2022/07/16 11:09:05;;;;;;;2.75;1.27;;;;;;;;;;4896209;29;20067;-68
2022/07/16 11:11:34;;;;;;;3.80;1.50;;;;;;;;;;4897769;29;20040;-66
2022/07/16 11:14:01;;;;;;;5.22;1.88;;;;;;;;;;4883131;29;20134;-67
2022/07/16 11:16:27;;;;;;;6.30;1.60;;;;;;;;;;4896413;29;20037;-66
2022/07/16 11:18:53;;;;;;;3.00;1.40;;;;;;;;;;4896930;29;20105;-67
2022/07/16 11:21:18;;;;;;;2.45;1.60;;;;;;;;;;4882106;29;20065;-66
2022/07/16 11:23:55;;;;;;;4.65;1.40;;;;;;;;;;4878473;29;20061;-67
2022/07/16 11:26:22;;;;;;;3.20;1.10;;;;;;;;;;4877415;29;20065;-66
2022/07/16 11:29:02;;;;;;;3.97;1.30;;;;;;;;;;4875437;29;20072;-66
2022/07/16 11:31:33;;;;;;;3.88;1.50;;;;;;;;;;4876591;29;20033;-68
2022/07/16 11:34:02;;;;;;;4.63;1.40;;;;;;;;;;4876981;29;20025;-67
2022/07/16 11:36:33;;;;;;;4.35;1.40;;;;;;;;;;4877485;29;20114;-67
2022/07/16 11:39:09;;;;;;;4.28;1.30;;;;;;;;;;4877708;29;20044;-67
2022/07/16 11:41:37;;;;;;;4.20;1.40;;;;;;;;;;4882487;29;20106;-67
2022/07/16 11:44:15;;;;;;;4.07;1.17;;;;;;;;;;4876330;29;20060;-67
2022/07/16 11:46:43;;;;;;;3.38;1.27;;;;;;;;;;4871814;29;20394;-67
2022/07/16 11:49:09;;;;;;;3.05;1.20;;;;;;;;;;4875095;29;20085;-67
2022/07/16 11:51:41;;;;;;;4.03;1.13;;;;;;;;;;4878230;29;20132;-66
2022/07/16 11:54:07;;;;;;;2.25;1.20;;;;;;;;;;4877577;29;20049;-67
2022/07/16 11:56:35;;;;;;;5.18;1.35;;;;;;;;;;4878271;29;20490;-67
2022/07/16 11:59:16;;;;;;;3.60;1.38;;;;;;;;;;4878162;29;20044;-67
2022/07/16 12:01:42;;;;;;;4.18;1.40;;;;;;;;;;4895234;29;20041;-67
2022/07/16 12:04:07;;;;;;;5.28;1.58;;;;;;;;;;4894657;29;20041;-67
2022/07/16 12:06:34;;;;;;;4.72;1.42;;;;;;;;;;4890883;29;20059;-67
2022/07/16 12:08:59;;;;;;;3.90;1.27;;;;;;;;;;4895716;29;20041;-67
2022/07/16 12:11:33;;;;;;;4.93;1.40;;;;;;;;;;4894980;29;20032;-67
2022/07/16 12:13:59;;;;;;;2.85;1.30;;;;;;;;;;4878960;29;20068;-68
2022/07/16 12:16:25;;;;;;;2.63;1.20;;;;;;;;;;4884213;29;20488;-67
2022/07/16 12:19:12;;;;;;;4.30;1.40;;;;;;;;;;4891459;29;20045;-68
2022/07/16 12:21:39;;;;;;;2.75;1.10;;;;;;;;;;4886874;29;20494;-66
2022/07/16 12:24:06;;;;;;;3.30;1.40;;;;;;;;;;4895602;29;20036;-67
2022/07/16 12:26:38;;;;;;;2.70;1.27;;;;;;;;;;4891393;29;20029;-67
2022/07/16 12:29:06;;;;;;;3.47;1.38;;;;;;;;;;4894492;29;20040;-67
2022/07/16 12:31:34;;;;;;;5.15;1.42;;;;;;;;;;4891226;29;20032;-67
2022/07/16 12:34:02;;;;;;;5.03;1.50;;;;;;;;;;4884833;29;20037;-67
2022/07/16 12:36:35;;;;;;;2.78;1.20;;;;;;;;;;4894905;29;20431;-67
2022/07/16 12:39:08;;;;;;;4.43;1.42;;;;;;;;;;4879042;29;20113;-67
2022/07/16 12:41:45;;;;;;;3.60;1.42;;;;;;;;;;4894718;29;20056;-67
2022/07/16 12:44:12;;;;;;;2.70;1.20;;;;;;;;;;4881063;29;20044;-67
2022/07/16 12:46:40;;;;;;;4.78;1.42;;;;;;;;;;4890362;29;20112;-66
2022/07/16 12:49:09;;;;;;;2.42;1.20;;;;;;;;;;4887857;29;20037;-67
2022/07/16 12:51:40;;;;;;;3.95;1.70;;;;;;;;;;4879555;29;20033;-67
2022/07/16 12:54:06;;;;;;;4.80;1.60;;;;;;;;;;4894354;29;20096;-67
2022/07/16 12:59:16;;;;;;;3.30;1.17;;;;;;;;;;4876767;29;20098;-67
2022/07/16 13:01:43;;;;;;;4.72;1.20;;;;;;;;;;4894254;29;20037;-66
2022/07/16 13:04:09;;;;;;;3.80;1.50;;;;;;;;;;4884642;29;20120;-68
2022/07/16 13:06:35;;;;;;;4.15;1.38;;;;;;;;;;4896098;29;20119;-60
2022/07/16 13:09:03;;;;;;;4.13;1.40;;;;;;;;;;4882188;29;20116;-62
2022/07/16 13:11:29;;;;;;;2.58;1.25;;;;;;;;;;4880399;29;20127;-61
2022/07/16 13:13:55;;;;;;;3.67;1.40;;;;;;;;;;4880566;29;20447;-61
2022/07/16 13:16:21;;;;;;;2.90;1.45;;;;;;;;;;4881441;29;20025;-61
2022/07/16 13:18:49;;;;;;;2.88;1.08;;;;;;;;;;4881439;29;20112;-61
2022/07/16 13:21:15;;;;;;;3.13;1.20;;;;;;;;;;4881284;29;20029;-61
2022/07/16 13:23:41;;;;;;;2.35;1.15;;;;;;;;;;4881454;29;20056;-62
2022/07/16 13:26:07;;;;;;;2.58;1.30;;;;;;;;;;4880128;29;20074;-61
2022/07/16 13:28:33;;;;;;;2.75;1.13;;;;;;;;;;4881825;29;20064;-61
2022/07/16 13:30:59;;;;;;;3.65;1.50;;;;;;;;;;4863923;29;20504;-62
2022/07/16 13:33:25;;;;;;;3.53;1.75;;;;;;;;;;4881480;29;20128;-61
2022/07/16 13:35:50;;;;;;;5.90;1.30;;;;;;;;;;4880618;29;20391;-64
2022/07/16 13:38:16;;;;;;;5.20;1.55;;;;;;;;;;4880609;29;20481;-62
2022/07/16 13:40:41;;;;;;;3.83;1.27;;;;;;;;;;4879120;29;20140;-62
2022/07/16 13:43:07;;;;;;;4.47;1.15;;;;;;;;;;4879816;29;20109;-62
2022/07/16 13:45:32;;;;;;;2.63;1.10;;;;;;;;;;4877149;29;20040;-62
2022/07/16 13:47:58;;;;;;;5.10;1.13;;;;;;;;;;4876444;29;20041;-61
2022/07/16 13:50:23;;;;;;;4.95;1.23;;;;;;;;;;4879429;29;20041;-61
2022/07/16 13:52:49;;;;;;;4.72;1.20;;;;;;;;;;4867800;29;20471;-62
2022/07/16 13:55:15;;;;;;;3.88;1.17;;;;;;;;;;4861231;29;20125;-62
2022/07/16 14:00:28;;;;;;;2.60;1.15;;;;;;;;;;4865574;29;20044;-62
2022/07/16 14:02:54;;;;;;;2.67;1.20;;;;;;;;;;4882917;29;20044;-64
2022/07/16 14:05:20;;;;;;;3.42;1.17;;;;;;;;;;4879199;29;20045;-61
2022/07/16 14:07:45;;;;;;;6.88;1.20;;;;;;;;;;4880077;29;20029;-60
2022/07/16 14:10:13;;;;;;;4.53;1.17;;;;;;;;;;4877404;29;20538;-61
2022/07/16 14:12:45;;;;;;;4.18;1.20;;;;;;;;;;4896007;29;20115;-61
2022/07/16 14:15:11;;;;;;;2.90;1.15;;;;;;;;;;4872618;29;20032;-61
2022/07/16 14:17:37;;;;;;;3.50;1.05;;;;;;;;;;4879445;29;20029;-61
2022/07/16 14:20:04;;;;;;;2.97;1.25;;;;;;;;;;4879225;29;20033;-62
2022/07/16 14:22:30;;;;;;;3.30;1.13;;;;;;;;;;4888147;29;20040;-61
2022/07/16 14:24:55;;;;;;;3.92;1.30;;;;;;;;;;4898134;29;20466;-63
2022/07/16 14:27:20;;;;;;;5.45;1.25;;;;;;;;;;4896317;29;20044;-61
2022/07/16 14:29:46;;;;;;;5.30;1.40;;;;;;;;;;4898329;29;20466;-61
2022/07/16 14:32:12;;;;;;;1.30;1.00;;;;;;;;;;4895900;29;20033;-61
2022/07/16 14:34:37;;;;;;;4.22;1.15;;;;;;;;;;4898631;29;20032;-61
2022/07/16 14:37:03;;;;;;;2.50;1.30;;;;;;;;;;4889841;29;20095;-62
2022/07/16 14:39:28;;;;;;;3.00;1.10;;;;;;;;;;4878589;29;20040;-62
2022/07/16 14:41:54;;;;;;;4.70;1.33;;;;;;;;;;4885794;29;20119;-65
2022/07/16 14:44:19;;;;;;;3.30;1.23;;;;;;;;;;4898114;29;20029;-61
2022/07/16 14:46:44;;;;;;;3.80;1.15;;;;;;;;;;4895320;29;20104;-61
2022/07/16 14:49:10;;;;;;;5.53;1.30;;;;;;;;;;4897139;29;20040;-62
2022/07/16 14:51:35;;;;;;;3.92;1.20;;;;;;;;;;4893466;29;20111;-62
2022/07/16 14:54:01;;;;;;;3.92;1.17;;;;;;;;;;4878794;29;20139;-60
2022/07/16 14:56:26;;;;;;;2.70;1.10;;;;;;;;;;4880108;29;20120;-62